Time;durP1;ratioP1;P1;durP2;ratioP2;P2;SDS_P1;SDS_P2;PMS_P1;PMS_P2;Temp;Humidity;BMP_temperature;BMP_pressure;BME280_temperature;BME280_humidity;BME280_pressure;Samples;Min_cycle;Max_cycle;Signal;HPM_P1;HPM_P2
2022/06/17 00:00:15;;;;;;;2.28;1.73;;;15.20;1.40;;;16.23;100.00;95972.08;646492;216;32213;-74
2022/06/17 00:02:56;;;;;;;2.15;1.50;;;14.80;1.40;;;16.13;100.00;95971.00;647007;216;31635;-74
2022/06/17 00:05:38;;;;;;;2.42;1.75;;;15.00;1.40;;;16.21;100.00;95964.41;618762;226;31952;-74
2022/06/17 00:08:26;;;;;;;2.03;1.73;;;15.20;1.40;;;16.25;100.00;95957.67;646355;216;31599;-74
2022/06/17 00:11:11;;;;;;;1.95;1.85;;;15.20;1.40;;;16.23;100.00;95961.27;646921;216;31658;-74
2022/06/17 00:13:52;;;;;;;5.55;2.58;;;15.10;1.40;;;16.14;100.00;95961.92;647369;212;31525;-75
2022/06/17 00:16:34;;;;;;;4.95;2.40;;;15.10;1.40;;;16.25;100.00;95958.89;646397;216;31560;-74
2022/06/17 00:19:18;;;;;;;2.40;1.80;;;15.30;1.40;;;16.38;100.00;95944.61;647422;216;31661;-73
2022/06/17 00:21:57;;;;;;;2.25;2.05;;;15.50;1.40;;;16.37;100.00;95940.70;646799;216;31533;-73
2022/06/17 00:24:42;;;;;;;2.05;1.70;;;15.40;1.40;;;16.33;100.00;95938.52;646833;216;32051;-77
2022/06/17 00:27:30;;;;;;;2.20;2.00;;;15.20;1.40;;;16.30;100.00;95952.42;647121;216;42275;-73
2022/06/17 00:30:20;;;;;;;1.90;1.80;;;15.30;1.40;;;16.26;100.00;95948.33;647046;216;31560;-73
2022/06/17 00:33:02;;;;;;;2.67;2.28;;;15.20;1.40;;;16.18;100.00;95954.91;647546;216;31663;-73
2022/06/17 00:35:51;;;;;;;1.80;1.50;;;15.00;1.40;;;16.00;100.00;95951.15;647020;216;31574;-73
2022/06/17 00:38:33;;;;;;;2.40;2.20;;;14.80;1.40;;;15.98;100.00;95949.23;647525;216;31529;-73
2022/06/17 00:41:15;;;;;;;2.00;1.73;;;14.90;1.40;;;15.86;100.00;95955.39;646402;216;31536;-73
2022/06/17 00:43:57;;;;;;;2.00;1.80;;;14.60;1.40;;;15.63;100.00;95953.77;647585;216;31544;-73
2022/06/17 00:46:42;;;;;;;2.45;1.80;;;14.30;1.40;;;15.45;100.00;95958.88;619551;226;32409;-73
2022/06/17 00:49:31;;;;;;;2.05;1.85;;;14.10;1.40;;;15.37;100.00;95961.66;647887;216;31561;-73
2022/06/17 00:52:22;;;;;;;2.03;1.83;;;13.90;1.40;;;15.40;100.00;95958.62;642685;217;31645;-73
2022/06/17 00:57:46;;;;;;;1.90;1.80;;;13.70;1.40;;;15.07;100.00;95963.89;646234;212;42187;-75
2022/06/17 01:00:27;;;;;;;3.55;2.30;;;13.50;1.40;;;14.94;100.00;95961.22;647528;212;31576;-73
2022/06/17 01:05:50;;;;;;;2.50;2.30;;;13.40;1.40;;;14.73;100.00;95963.62;646440;216;31601;-74
2022/06/17 01:11:20;;;;;;;1.23;1.10;;;13.20;1.40;;;14.67;100.00;95966.44;645473;216;31608;-74
2022/06/17 01:14:01;;;;;;;4.03;1.75;;;13.20;1.40;;;14.59;100.00;95969.02;647603;216;31516;-74
2022/06/17 01:16:43;;;;;;;2.00;1.80;;;13.20;1.40;;;14.51;100.00;95972.09;647227;212;31636;-74
2022/06/17 01:19:31;;;;;;;3.12;1.90;;;13.10;1.40;;;14.56;100.00;95979.22;646461;212;31644;-74
2022/06/17 01:22:42;;;;;;;2.17;2.00;;;13.20;1.40;;;14.54;100.00;95981.27;647333;216;31560;-74
2022/06/17 01:25:29;;;;;;;3.00;2.10;;;13.20;1.40;;;14.55;100.00;95990.75;647580;216;32549;-74
2022/06/17 01:28:11;;;;;;;2.20;2.10;;;13.20;1.40;;;14.51;100.00;96000.20;646167;216;31774;-74
2022/06/17 01:30:54;;;;;;;2.37;1.87;;;13.20;1.40;;;14.49;100.00;96007.70;648253;212;32113;-74
2022/06/17 01:35:53;;;;;;;2.00;1.80;;;13.00;1.40;;;14.34;100.00;96000.02;647622;216;31568;-73
2022/06/17 01:38:37;;;;;;;2.47;2.28;;;13.00;1.40;;;14.38;100.00;95984.84;646118;216;33480;-73
2022/06/17 01:41:20;;;;;;;3.47;1.85;;;13.00;1.40;;;14.30;100.00;95990.72;646539;216;31555;-73
2022/06/17 01:44:08;;;;;;;3.10;2.90;;;13.00;1.40;;;14.25;100.00;95989.11;646841;216;31554;-73
2022/06/17 01:46:51;;;;;;;2.70;1.70;;;13.10;1.40;;;14.20;100.00;95989.89;646529;216;31962;-74
2022/06/17 01:49:37;;;;;;;2.30;2.03;;;13.00;1.40;;;14.16;100.00;96001.14;619282;226;31892;-74
2022/06/17 01:52:22;;;;;;;4.18;2.00;;;12.90;1.40;;;14.16;100.00;96001.30;643893;216;31668;-74
2022/06/17 01:55:10;;;;;;;2.12;1.73;;;13.00;1.40;;;14.23;100.00;96001.61;646470;216;33612;-73
2022/06/17 01:58:08;;;;;;;3.58;1.62;;;13.10;1.40;;;14.23;100.00;95995.65;646025;212;31766;-74
2022/06/17 02:00:49;;;;;;;3.08;2.00;;;13.20;1.40;;;14.27;100.00;95996.91;647430;216;42228;-72
2022/06/17 02:03:32;;;;;;;2.33;1.65;;;13.20;1.40;;;14.28;100.00;95988.75;647437;216;42515;-73
2022/06/17 02:06:19;;;;;;;2.62;2.03;;;13.30;1.40;;;14.21;100.00;95979.13;646956;212;42268;-74
2022/06/17 02:09:04;;;;;;;2.70;2.12;;;13.10;1.40;;;14.17;100.00;95970.62;646012;216;42195;-74
2022/06/17 02:11:55;;;;;;;1.80;1.70;;;13.10;1.40;;;14.23;100.00;95970.89;619602;226;32331;-91
2022/06/17 02:14:39;;;;;;;1.60;1.50;;;13.20;1.40;;;14.32;100.00;95973.12;646196;216;35372;-73
2022/06/17 02:17:21;;;;;;;1.50;1.15;;;13.40;1.40;;;14.40;100.00;95976.67;646465;212;32209;-74
2022/06/17 02:20:02;;;;;;;2.55;1.80;;;13.50;1.40;;;14.19;100.00;95971.60;646682;216;42934;-73
2022/06/17 02:22:44;;;;;;;2.08;1.87;;;13.10;1.40;;;14.11;100.00;95969.82;646888;216;31590;-74
2022/06/17 02:25:27;;;;;;;2.17;1.65;;;12.90;1.40;;;14.09;100.00;95964.16;647672;216;42222;-73
2022/06/17 02:30:42;;;;;;;4.00;1.65;;;13.10;1.40;;;14.11;100.00;95956.73;645832;216;31670;-73
2022/06/17 02:35:52;;;;;;;2.25;2.05;;;12.90;1.40;;;13.76;100.00;95950.32;647629;216;31623;-73
2022/06/17 02:38:34;;;;;;;3.50;2.30;;;12.60;1.40;;;13.67;100.00;95949.74;646101;212;40451;-73
2022/06/17 02:41:17;;;;;;;4.30;2.10;;;12.50;1.40;;;13.66;100.00;95954.95;646488;216;31641;-73
2022/06/17 02:46:34;;;;;;;3.12;1.85;;;12.50;1.40;;;13.64;100.00;95959.45;648109;212;31577;-74
2022/06/17 02:49:16;;;;;;;1.95;1.85;;;12.50;1.40;;;13.77;100.00;95958.55;646737;216;42157;-73
2022/06/17 02:52:00;;;;;;;2.03;1.83;;;12.80;1.40;;;13.82;100.00;95948.33;645958;212;31719;-73
2022/06/17 02:54:43;;;;;;;2.50;2.30;;;12.80;1.40;;;13.75;100.00;95942.17;648453;216;31624;-73
2022/06/17 02:57:24;;;;;;;3.17;1.87;;;12.70;1.40;;;13.56;100.00;95940.06;645889;216;38136;-73
2022/06/17 03:00:11;;;;;;;2.50;1.70;;;12.40;1.40;;;13.66;100.00;95937.22;645833;212;31582;-73
2022/06/17 03:02:53;;;;;;;3.87;2.05;;;12.70;1.40;;;13.79;100.00;95934.39;647250;216;31614;-74
2022/06/17 03:05:38;;;;;;;2.55;2.33;;;12.90;1.40;;;13.71;100.00;95926.29;646540;212;31561;-73
2022/06/17 03:08:21;;;;;;;2.30;1.73;;;12.80;1.40;;;13.61;100.00;95928.41;646469;212;31713;-73
2022/06/17 03:11:04;;;;;;;2.30;1.80;;;12.50;1.40;;;13.67;100.00;95927.18;647757;216;38208;-74
2022/06/17 03:13:54;;;;;;;1.80;1.60;;;12.60;1.40;;;13.64;100.00;95925.44;645937;216;31570;-73
2022/06/17 03:16:36;;;;;;;2.08;1.42;;;12.60;1.40;;;13.61;100.00;95931.80;646139;216;31614;-73
2022/06/17 03:19:19;;;;;;;2.42;1.95;;;12.50;1.40;;;13.49;100.00;95933.53;647101;216;33024;-73
2022/06/17 03:22:01;;;;;;;2.37;2.17;;;12.30;1.40;;;13.41;100.00;95942.34;619638;226;31946;-73
2022/06/17 03:24:53;;;;;;;2.22;2.03;;;12.20;1.40;;;13.40;100.00;95945.26;646658;216;32009;-74
2022/06/17 03:27:47;;;;;;;3.70;2.03;;;12.30;1.40;;;13.29;100.00;95948.08;646878;212;31585;-73
2022/06/17 03:35:51;;;;;;;2.22;2.03;;;11.80;1.40;;;12.93;100.00;95949.81;646911;216;31867;-73
2022/06/17 03:38:45;;;;;;;1.90;1.60;;;11.70;1.40;;;12.96;100.00;95958.01;646717;216;31579;-74
2022/06/17 03:41:27;;;;;;;2.57;2.30;;;11.80;1.40;;;13.00;100.00;95960.00;646189;212;31555;-73
2022/06/17 03:44:10;;;;;;;2.20;2.00;;;11.80;1.40;;;12.97;100.00;95967.84;646268;216;31568;-73
2022/06/17 03:46:53;;;;;;;2.40;1.90;;;11.70;1.40;;;12.99;100.00;95972.48;646217;212;31563;-73
2022/06/17 03:49:44;;;;;;;2.67;2.47;;;11.80;1.40;;;13.01;100.00;95983.34;647296;212;32202;-72
2022/06/17 03:52:44;;;;;;;1.83;1.73;;;11.70;1.40;;;13.11;100.00;95998.16;642503;216;31857;-74
2022/06/17 03:55:25;;;;;;;2.27;1.93;;;11.70;1.40;;;13.09;100.00;96000.11;646916;216;31684;-73
2022/06/17 03:58:07;;;;;;;4.20;1.83;;;11.80;1.40;;;12.98;100.00;96009.05;641709;216;31602;-73
2022/06/17 04:01:12;;;;;;;2.30;2.13;;;11.70;1.40;;;13.04;100.00;96013.56;645772;216;31666;-73
2022/06/17 04:03:54;;;;;;;1.77;1.50;;;11.70;1.40;;;12.86;100.00;96015.98;647787;216;32136;-72
2022/06/17 04:06:37;;;;;;;3.30;1.60;;;11.50;1.40;;;12.96;100.00;96013.44;646645;216;35624;-72
2022/06/17 04:09:24;;;;;;;1.50;1.40;;;11.60;1.40;;;12.83;100.00;96007.19;646388;216;31567;-72
2022/06/17 04:14:49;;;;;;;2.53;2.10;;;11.50;1.40;;;12.99;100.00;95992.47;646598;216;31944;-73
2022/06/17 04:17:39;;;;;;;1.85;1.60;;;12.00;1.40;;;13.20;100.00;95988.88;645250;216;33694;-73
2022/06/17 04:20:30;;;;;;;1.90;1.80;;;12.30;1.40;;;13.37;100.00;95984.03;647393;216;31596;-74
2022/06/17 04:23:14;;;;;;;2.20;2.00;;;12.50;1.40;;;13.59;100.00;95978.97;647281;216;34563;-74
2022/06/17 04:26:03;;;;;;;3.90;2.10;;;12.80;1.40;;;13.84;100.00;95978.38;647956;216;31599;-73
2022/06/17 04:28:48;;;;;;;3.70;1.40;;;13.10;1.40;;;14.14;100.00;95988.81;645071;216;31582;-73
2022/06/17 04:31:29;;;;;;;1.98;1.70;;;13.40;1.40;;;14.34;100.00;95984.30;646197;215;40655;-73
2022/06/17 04:36:04;;;;;;;2.00;1.70;;;13.70;1.40;;;14.62;100.00;95988.00;620252;222;32017;-73
2022/06/17 04:38:58;;;;;;;3.40;2.12;;;13.90;1.40;;;14.78;100.00;95985.15;646760;212;38599;-74
2022/06/17 04:41:40;;;;;;;2.67;1.98;;;14.10;1.40;;;14.96;100.00;95990.76;647141;216;31578;-73
2022/06/17 04:44:22;;;;;;;2.80;2.20;;;14.20;1.40;;;15.12;100.00;95997.98;646691;216;42170;-73
2022/06/17 04:47:14;;;;;;;1.80;1.50;;;14.30;1.40;;;15.27;100.00;96003.88;646493;216;42178;-73
2022/06/17 04:49:56;;;;;;;2.90;2.20;;;14.40;1.40;;;15.37;100.00;96008.60;645567;216;31537;-73
2022/06/17 04:52:38;;;;;;;2.75;1.80;;;14.40;1.40;;;15.47;100.00;96011.01;641457;212;32282;-73
2022/06/17 04:57:57;;;;;;;2.55;2.05;;;14.50;1.40;;;15.58;100.00;96021.53;646648;216;32150;-74
2022/06/17 05:02:14;;;;;;;2.30;1.80;;;14.60;1.40;;;15.81;100.00;96028.30;645070;216;42822;-73
2022/06/17 05:04:57;;;;;;;3.13;1.90;;;14.70;1.40;;;15.94;100.00;96033.66;646112;216;31567;-74
2022/06/17 05:07:41;;;;;;;2.50;2.10;;;14.70;1.40;;;16.10;100.00;96039.72;646256;216;31531;-73
2022/06/17 05:10:26;;;;;;;2.30;2.10;;;15.00;1.40;;;16.32;100.00;96042.59;645045;212;31512;-74
2022/06/17 05:13:14;;;;;;;2.00;1.50;;;15.20;1.40;;;16.51;100.00;96044.02;647328;216;31640;-74
2022/06/17 05:15:56;;;;;;;1.90;1.50;;;15.30;1.40;;;16.67;100.00;96058.57;619916;225;31852;-74
2022/06/17 05:18:38;;;;;;;2.30;2.10;;;15.40;1.40;;;16.78;100.00;96057.72;646586;216;31675;-74
2022/06/17 05:21:19;;;;;;;2.12;1.90;;;15.60;1.40;;;16.93;100.00;96066.30;617686;225;32006;-74
2022/06/17 05:24:01;;;;;;;4.00;1.95;;;15.70;1.40;;;17.08;100.00;96070.63;647491;216;31498;-73
2022/06/17 05:26:43;;;;;;;4.03;2.20;;;15.90;1.40;;;17.20;100.00;96075.66;646972;212;31559;-74
2022/06/17 05:29:27;;;;;;;1.90;1.65;;;16.00;1.40;;;17.36;100.00;96071.47;646203;216;31608;-74
2022/06/17 05:32:10;;;;;;;1.85;1.75;;;16.20;1.40;;;17.51;100.00;96073.94;647448;216;32157;-73
2022/06/17 05:35:51;;;;;;;2.35;2.10;;;16.30;1.40;;;17.86;100.00;96075.64;646751;216;42200;-74
2022/06/17 05:38:33;;;;;;;2.97;2.00;;;16.50;1.40;;;17.90;100.00;96074.41;646419;212;33895;-75
2022/06/17 05:41:17;;;;;;;2.80;2.10;;;16.60;1.40;;;18.03;100.00;96077.88;646017;216;31582;-73
2022/06/17 05:43:59;;;;;;;3.22;2.03;;;16.70;1.40;;;18.15;100.00;96076.08;647105;216;31645;-74
2022/06/17 05:46:43;;;;;;;1.80;1.70;;;16.70;1.40;;;18.13;100.00;96072.03;646920;216;31573;-73
2022/06/17 05:49:22;;;;;;;2.10;1.85;;;16.70;1.40;;;18.25;100.00;96080.31;645515;216;31553;-73
2022/06/17 05:52:04;;;;;;;2.40;1.90;;;16.80;1.40;;;18.50;100.00;96084.42;643274;216;31686;-73
2022/06/17 05:54:46;;;;;;;1.92;1.80;;;16.80;1.40;;;18.48;100.00;96085.63;646993;216;31561;-74
2022/06/17 05:57:28;;;;;;;3.08;1.87;;;17.10;1.40;;;18.56;100.00;96091.16;647076;212;31599;-74
2022/06/17 06:00:13;;;;;;;1.80;1.70;;;17.10;1.40;;;18.78;100.00;96090.87;646342;216;31627;-74
2022/06/17 06:02:58;;;;;;;2.47;1.80;;;17.10;1.40;;;18.76;100.00;96091.02;646664;216;31566;-73
2022/06/17 06:05:40;;;;;;;2.72;2.37;;;17.10;1.40;;;18.82;100.00;96093.83;646530;216;31603;-73
2022/06/17 06:08:21;;;;;;;2.35;2.15;;;17.20;1.40;;;18.97;100.00;96094.91;645835;216;31536;-73
2022/06/17 06:11:05;;;;;;;2.30;2.10;;;17.30;1.40;;;18.88;100.00;96097.97;619413;226;31860;-72
2022/06/17 06:13:46;;;;;;;2.90;2.00;;;17.20;1.40;;;19.09;100.00;96104.76;619779;226;32240;-73
2022/06/17 06:19:03;;;;;;;2.60;2.00;;;17.30;1.40;;;19.11;100.00;96108.69;646973;216;31584;-73
2022/06/17 06:21:44;;;;;;;2.90;2.35;;;17.40;1.40;;;19.11;100.00;96114.05;646307;216;31542;-73
2022/06/17 06:24:26;;;;;;;2.60;1.75;;;17.50;1.40;;;19.20;100.00;96118.70;646154;212;31718;-73
2022/06/17 06:27:08;;;;;;;2.20;1.98;;;17.40;1.40;;;19.33;99.09;96119.10;647692;216;32126;-73
2022/06/17 06:29:49;;;;;;;2.33;1.80;;;17.50;1.40;;;19.34;99.45;96120.38;645958;216;32010;-72
2022/06/17 06:32:31;;;;;;;2.35;2.15;;;17.40;1.40;;;19.05;96.65;96121.66;646707;216;32822;-73
2022/06/17 06:35:51;;;;;;;2.78;1.92;;;17.40;1.40;;;19.16;98.37;96127.53;647756;216;31557;-73
2022/06/17 06:38:33;;;;;;;2.30;2.05;;;17.50;1.40;;;19.26;98.94;96124.44;644921;216;31552;-74
2022/06/17 06:41:17;;;;;;;1.92;1.73;;;17.40;1.40;;;19.25;99.66;96128.68;646466;216;31707;-73
2022/06/17 06:43:57;;;;;;;2.00;1.80;;;17.50;1.40;;;19.30;99.82;96132.89;646120;216;31661;-74
2022/06/17 06:46:38;;;;;;;3.75;2.00;;;17.70;1.40;;;19.31;97.45;96135.33;647359;216;31556;-73
2022/06/17 06:49:20;;;;;;;2.42;1.90;;;17.90;1.40;;;19.58;96.66;96137.63;618807;226;31928;-73
2022/06/17 06:52:02;;;;;;;2.10;1.80;;;18.10;1.40;;;19.80;96.66;96140.14;643590;216;31760;-73
2022/06/17 06:54:44;;;;;;;3.00;2.30;;;18.20;1.40;;;19.79;93.91;96136.53;646220;212;31581;-73
2022/06/17 06:57:26;;;;;;;2.97;2.77;;;18.10;1.40;;;19.93;93.43;96136.45;646237;216;31625;-73
2022/06/17 07:00:12;;;;;;;3.25;2.35;;;18.10;1.40;;;19.99;95.46;96138.55;646466;212;31559;-73
2022/06/17 07:02:54;;;;;;;2.28;2.00;;;18.30;1.40;;;20.14;91.23;96138.67;647586;216;42345;-72
2022/06/17 07:05:35;;;;;;;2.53;2.08;;;18.40;1.40;;;20.06;91.70;96135.95;647417;216;42126;-73
2022/06/17 07:08:17;;;;;;;4.15;2.33;;;18.50;1.40;;;19.91;92.13;96144.95;618670;226;42605;-73
2022/06/17 07:10:59;;;;;;;2.23;2.00;;;18.40;1.40;;;20.13;93.72;96146.14;632080;222;31803;-74
2022/06/17 07:13:40;;;;;;;3.78;2.30;;;18.60;1.40;;;20.05;92.65;96141.81;619454;225;42797;-73
2022/06/17 07:16:25;;;;;;;3.00;2.30;;;18.60;1.40;;;19.96;92.08;96142.70;618909;222;43073;-73
2022/06/17 07:19:10;;;;;;;2.22;2.00;;;18.60;1.40;;;20.20;93.31;96145.31;646761;212;31720;-73
2022/06/17 07:21:51;;;;;;;2.50;2.30;;;18.70;1.40;;;20.04;95.57;96139.74;618183;226;32005;-73
2022/06/17 07:24:30;;;;;;;3.90;2.20;;;18.70;1.40;;;20.00;94.10;96140.41;645626;216;31520;-73
2022/06/17 07:27:12;;;;;;;3.45;2.25;;;18.50;1.40;;;20.31;94.38;96137.02;646468;216;42166;-73
2022/06/17 07:29:53;;;;;;;1.80;1.70;;;18.90;1.40;;;20.45;92.36;96139.71;646679;216;34448;-73
2022/06/17 07:32:35;;;;;;;2.78;2.30;;;19.10;1.40;;;20.30;90.13;96141.27;645768;216;31744;-73
2022/06/17 07:35:53;;;;;;;2.00;1.80;;;19.00;1.40;;;20.53;91.00;96140.94;646073;216;31752;-73
2022/06/17 07:41:19;;;;;;;2.60;1.83;;;19.60;1.40;;;21.10;88.94;96142.93;646322;216;31609;-73
2022/06/17 07:44:05;;;;;;;2.30;2.10;;;19.80;1.40;;;21.05;88.31;96145.66;647372;216;31543;-74
2022/06/17 07:46:46;;;;;;;2.65;2.20;;;19.60;1.40;;;21.10;87.33;96145.66;648061;212;31899;-74
2022/06/17 07:49:27;;;;;;;4.10;2.03;;;19.80;1.40;;;21.43;88.60;96148.81;647082;216;31598;-73
2022/06/17 07:52:09;;;;;;;2.40;2.20;;;19.90;1.40;;;21.28;88.92;96147.53;617593;226;32212;-73
2022/06/17 07:54:51;;;;;;;2.35;2.15;;;20.00;1.40;;;21.42;89.34;96151.42;646945;212;31810;-73
2022/06/17 07:57:32;;;;;;;3.20;2.30;;;20.20;1.40;;;21.36;86.14;96149.52;644970;212;31691;-73
2022/06/17 08:00:22;;;;;;;2.20;2.10;;;20.10;1.40;;;21.53;85.85;96142.94;646750;216;31586;-73
2022/06/17 08:03:04;;;;;;;2.15;1.95;;;20.40;1.40;;;21.59;85.23;96146.36;646252;216;31948;-73
2022/06/17 08:05:45;;;;;;;2.50;2.25;;;20.60;1.40;;;21.75;83.50;96152.84;646463;216;31621;-73
2022/06/17 08:08:27;;;;;;;4.60;2.00;;;20.70;1.40;;;21.89;82.05;96154.83;645849;216;31597;-74
2022/06/17 08:11:09;;;;;;;2.57;2.30;;;20.90;1.40;;;21.88;79.74;96150.60;646331;216;32281;-73
2022/06/17 08:13:50;;;;;;;2.78;2.00;;;20.80;1.40;;;22.27;82.29;96155.97;645191;212;32139;-74
2022/06/17 08:16:32;;;;;;;3.13;2.20;;;21.20;1.40;;;22.62;79.76;96147.50;646980;216;31583;-73
2022/06/17 08:19:16;;;;;;;3.30;2.30;;;21.20;1.40;;;22.41;79.88;96156.54;648105;216;31720;-73
2022/06/17 08:21:58;;;;;;;2.30;2.10;;;21.20;1.40;;;22.35;81.37;96164.97;618811;226;32155;-73
2022/06/17 08:24:39;;;;;;;2.73;2.50;;;21.10;1.40;;;22.19;82.38;96157.85;646875;216;31632;-73
2022/06/17 08:27:21;;;;;;;2.75;2.10;;;21.10;1.40;;;22.64;81.58;96152.37;645059;216;31578;-73
2022/06/17 08:30:03;;;;;;;2.15;1.90;;;21.60;1.40;;;22.96;77.54;96155.60;646358;216;32909;-74
2022/06/17 08:32:45;;;;;;;3.60;2.47;;;21.80;1.40;;;22.83;73.46;96152.11;620639;226;32634;-74
2022/06/17 08:35:54;;;;;;;2.12;1.92;;;21.70;1.40;;;23.21;77.25;96153.37;647552;216;31598;-74
2022/06/17 08:38:36;;;;;;;2.60;2.40;;;21.90;1.40;;;23.00;79.46;96149.94;619667;225;31862;-74
2022/06/17 08:41:29;;;;;;;4.00;2.40;;;21.90;1.40;;;23.14;79.15;96157.73;647209;216;33652;-74
2022/06/17 08:44:35;;;;;;;2.30;2.10;;;22.10;1.40;;;23.52;77.13;96155.12;644424;216;32110;-74
2022/06/17 08:47:25;;;;;;;2.80;1.58;;;22.20;1.40;;;23.50;73.84;96156.26;648616;216;34945;-74
2022/06/17 08:50:35;;;;;;;1.73;1.60;;;22.30;1.40;;;23.43;71.61;96162.25;647056;216;31556;-74
2022/06/17 08:53:52;;;;;;;2.05;1.85;;;22.30;1.40;;;23.67;72.75;96169.31;637613;213;31691;-74
2022/06/17 08:56:36;;;;;;;2.00;1.80;;;22.40;1.40;;;23.77;72.57;96165.66;647096;212;31797;-74
2022/06/17 08:59:34;;;;;;;2.40;2.20;;;22.60;1.40;;;24.00;72.63;96167.80;645447;216;31533;-74
2022/06/17 09:02:27;;;;;;;2.47;2.28;;;22.90;1.40;;;24.65;73.37;96170.95;646606;216;31561;-74
2022/06/17 09:05:13;;;;;;;3.40;2.60;;;23.40;1.40;;;24.82;70.92;96172.27;647034;216;31641;-74
2022/06/17 09:08:22;;;;;;;3.00;2.50;;;23.50;1.40;;;24.69;68.10;96175.10;647015;216;31592;-74
2022/06/17 09:16:46;;;;;;;1.83;1.70;;;23.80;1.40;;;25.36;70.46;96168.70;646490;216;31585;-74
2022/06/17 09:19:27;;;;;;;1.70;1.60;;;24.30;1.40;;;25.60;66.63;96169.53;646395;216;31537;-75
2022/06/17 09:22:10;;;;;;;2.22;2.03;;;24.70;1.40;;;26.44;71.03;96169.47;647657;216;31598;-74
2022/06/17 09:24:52;;;;;;;3.92;2.40;;;25.40;1.40;;;27.13;65.83;96170.06;646949;216;31606;-74
2022/06/17 09:27:35;;;;;;;3.65;2.17;;;25.60;1.40;;;27.06;63.93;96176.09;646534;212;31529;-74
2022/06/17 09:30:21;;;;;;;4.28;2.30;;;27.00;1.40;;;28.11;60.88;96166.36;646298;216;31593;-74
2022/06/17 09:36:09;;;;;;;2.55;1.80;;;30.10;1.40;;;30.27;56.21;96164.75;647930;216;34096;-75
2022/06/17 09:38:50;;;;;;;2.80;2.10;;;31.10;1.40;;;31.17;47.79;96163.88;619488;226;32371;-74
2022/06/17 09:41:36;;;;;;;3.62;2.40;;;30.40;1.40;;;29.84;49.14;96164.15;646901;216;42393;-75
2022/06/17 09:44:22;;;;;;;2.60;2.40;;;29.20;1.40;;;29.74;49.18;96165.66;630495;221;42371;-75
2022/06/17 09:47:04;;;;;;;1.87;1.77;;;29.20;1.40;;;31.39;49.99;96166.87;646996;216;31527;-75
2022/06/17 09:49:49;;;;;;;2.28;2.08;;;30.60;1.40;;;31.63;47.19;96173.57;647191;216;31732;-73
2022/06/17 09:52:34;;;;;;;2.90;2.33;;;30.00;1.40;;;32.30;45.41;96167.83;613698;226;32059;-75
2022/06/17 09:55:18;;;;;;;2.45;2.25;;;31.00;1.40;;;33.24;46.86;96167.95;647269;216;31548;-73
2022/06/17 09:58:02;;;;;;;3.70;2.30;;;31.40;1.40;;;32.64;42.08;96167.84;645873;216;31688;-74
2022/06/17 10:00:44;;;;;;;3.40;1.92;;;30.10;1.40;;;32.29;40.68;96175.95;645584;216;42303;-75
2022/06/17 10:03:28;;;;;;;2.00;1.80;;;30.70;1.40;;;31.59;43.71;96173.70;646568;216;31699;-75
2022/06/17 10:06:35;;;;;;;2.17;1.98;;;30.20;1.40;;;32.16;41.66;96171.09;647126;212;31929;-73
2022/06/17 10:09:21;;;;;;;2.20;2.00;;;30.20;1.40;;;32.41;42.81;96170.92;646365;216;31616;-75
2022/06/17 10:13:02;;;;;;;2.55;2.33;;;29.60;1.40;;;33.51;40.87;96169.35;646561;216;31624;-73
2022/06/17 10:18:55;;;;;;;2.95;2.50;;;31.50;1.40;;;33.22;40.89;96173.95;646730;216;31720;-75
2022/06/17 10:21:50;;;;;;;2.87;2.47;;;30.90;1.40;;;34.03;39.98;96172.53;645597;216;31764;-73
2022/06/17 10:24:38;;;;;;;3.00;2.35;;;30.40;1.40;;;35.20;39.98;96165.58;646481;216;35767;-75
2022/06/17 10:27:53;;;;;;;3.00;2.47;;;31.60;1.40;;;35.09;38.05;96162.55;646269;212;42330;-73
2022/06/17 10:30:50;;;;;;;2.65;2.45;;;31.40;1.40;;;33.18;38.68;96160.87;646063;216;31590;-75
2022/06/17 10:38:38;;;;;;;5.28;3.55;;;30.50;1.40;;;33.67;40.62;96150.40;618884;225;32293;-73
2022/06/17 10:41:20;;;;;;;2.50;2.30;;;30.50;1.40;;;32.80;36.71;96150.13;616304;226;31993;-74
2022/06/17 10:44:08;;;;;;;6.43;3.72;;;28.30;1.40;;;32.81;41.78;96146.23;647124;216;32159;-74
2022/06/17 10:46:46;;;;;;;2.20;2.00;;;28.80;1.40;;;33.56;42.12;96143.96;629379;221;31945;-73
2022/06/17 10:49:39;;;;;;;2.28;2.08;;;30.00;1.40;;;35.55;37.52;96143.29;646603;216;31709;-76
2022/06/17 10:52:22;;;;;;;2.55;2.25;;;31.10;1.40;;;36.80;38.15;96136.49;642254;212;31731;-74
2022/06/17 10:55:04;;;;;;;2.55;2.05;;;32.60;1.40;;;35.87;36.07;96143.33;646224;212;42905;-75
2022/06/17 10:58:03;;;;;;;2.35;1.92;;;30.90;1.40;;;34.40;37.82;96139.36;619458;225;34246;-75
2022/06/17 11:00:53;;;;;;;4.25;2.20;;;29.10;1.40;;;33.40;40.15;96146.80;647091;212;43099;-75
2022/06/17 11:06:19;;;;;;;1.75;1.65;;;28.00;1.40;;;30.24;40.76;96154.68;647287;212;31555;-75
2022/06/17 11:09:03;;;;;;;2.00;1.80;;;27.60;1.40;;;29.48;40.21;96150.87;619679;226;32090;-76
2022/06/17 11:14:40;;;;;;;1.95;1.77;;;26.70;1.40;;;28.68;42.99;96150.84;645985;216;32215;-75
2022/06/17 11:17:41;;;;;;;3.87;2.37;;;26.90;1.40;;;28.44;42.15;96155.75;645251;216;31783;-76
2022/06/17 11:20:29;;;;;;;1.90;1.80;;;27.00;1.40;;;29.04;42.88;96154.33;647944;212;31563;-78
2022/06/17 11:23:18;;;;;;;2.75;1.60;;;27.20;1.40;;;28.37;43.39;96160.73;620619;226;31994;-76
2022/06/17 11:29:00;;;;;;;2.10;1.90;;;26.80;1.40;;;27.72;43.30;96163.94;647193;216;31866;-75
2022/06/17 11:31:49;;;;;;;2.40;1.90;;;26.50;1.40;;;29.05;43.23;96155.84;615682;224;34871;-76
2022/06/17 11:38:37;;;;;;;1.55;1.45;;;28.00;1.40;;;30.17;41.19;96138.98;646669;216;31534;-75
2022/06/17 11:41:31;;;;;;;1.75;1.65;;;28.60;1.40;;;29.86;38.99;96138.95;646973;212;31627;-75
2022/06/17 11:44:13;;;;;;;1.55;1.42;;;27.60;1.40;;;31.63;37.36;96124.20;646133;216;31628;-74
2022/06/17 11:46:58;;;;;;;2.72;1.80;;;29.10;1.40;;;32.87;35.52;96121.81;645968;216;31769;-75
2022/06/17 11:49:40;;;;;;;5.30;2.03;;;29.20;1.40;;;32.52;36.42;96121.50;619639;226;32186;-75
2022/06/17 11:52:29;;;;;;;1.65;1.42;;;28.80;1.40;;;33.83;35.12;96125.46;642855;216;31715;-75
2022/06/17 11:55:14;;;;;;;3.60;2.00;;;29.80;1.40;;;35.88;33.63;96117.86;646882;216;31581;-73
2022/06/17 11:57:55;;;;;;;2.28;1.60;;;30.50;1.40;;;35.75;32.33;96120.57;646723;216;31709;-74
2022/06/17 12:00:55;;;;;;;1.77;1.27;;;31.30;1.40;;;34.48;30.94;96116.99;645851;216;42581;-76
2022/06/17 12:03:41;;;;;;;1.30;1.10;;;30.00;1.40;;;32.03;30.64;96126.22;646553;216;31682;-74
2022/06/17 12:06:24;;;;;;;1.50;1.00;;;28.90;1.40;;;32.51;31.47;96120.77;649036;216;31706;-75
2022/06/17 12:09:22;;;;;;;1.20;1.10;;;28.90;1.40;;;33.39;30.02;96116.64;647341;216;31532;-73
2022/06/17 12:12:05;;;;;;;3.90;1.52;;;29.50;1.40;;;33.48;32.62;96116.50;649386;216;31801;-73
2022/06/17 12:15:03;;;;;;;1.60;1.20;;;29.70;1.40;;;35.30;31.83;96112.20;646302;216;31778;-73
2022/06/17 12:17:45;;;;;;;2.40;2.20;;;30.00;1.40;;;37.48;30.29;96105.80;646771;216;31626;-73
2022/06/17 12:20:37;;;;;;;5.80;1.60;;;31.00;1.40;;;35.97;32.67;96109.14;617394;225;31899;-73
2022/06/17 12:23:20;;;;;;;1.60;1.50;;;30.70;1.40;;;36.91;30.29;96106.78;618188;226;32606;-74
2022/06/17 12:26:03;;;;;;;1.50;1.37;;;30.70;1.40;;;35.42;29.81;96117.91;646998;216;31584;-74
2022/06/17 12:28:51;;;;;;;2.20;1.65;;;30.10;1.40;;;33.62;32.52;96115.53;645905;212;31776;-74
2022/06/17 12:31:45;;;;;;;1.90;1.50;;;28.90;1.40;;;32.74;32.33;96117.05;648787;216;33558;-76
2022/06/17 12:36:11;;;;;;;2.72;1.60;;;28.30;1.40;;;33.28;32.28;96101.63;645717;212;31612;-73
2022/06/17 12:39:02;;;;;;;1.02;0.93;;;28.90;1.40;;;32.84;31.53;96103.12;650056;212;31483;-76
2022/06/17 12:41:57;;;;;;;1.70;1.30;;;29.30;1.40;;;34.53;31.51;96104.08;647928;216;31811;-74
2022/06/17 12:47:41;;;;;;;1.90;1.60;;;30.30;1.40;;;34.18;31.44;96097.31;646854;216;43104;-76
2022/06/17 12:53:54;;;;;;;1.10;1.00;;;30.80;1.40;;;35.08;29.18;96093.06;645450;216;32142;-74
2022/06/17 12:57:05;;;;;;;1.87;1.30;;;30.20;1.40;;;36.06;29.71;96088.97;620358;226;32246;-73